Wetterdaten: Woche 17.05.10 - 23.05.10 (KW20)
Datum Zeit Temp. Innen Temp. Aussen UV X Diff Temp. Feuchte Inne Feuchte Auss Sonnenschein Luftdruck Regen ab 0,1 Wind Sonnenschein Windben
17.05.2010 00:00 17,0 C 8,4 C 0,0 UV-I 0,0 C 49 % 78 % 0 % 1018,9 hPa 0,0 l/m 0,0 km/h (0 Bft) 0,00 h 0,0 km/h (0 Bft)
17.05.2010 01:00 16,8 C 7,7 C 0,0 UV-I 0,0 C 50 % 83 % 0 % 1019,0 hPa 0,0 l/m 0,0 km/h (0 Bft) 0,00 h 0,0 km/h (0 Bft)
17.05.2010 02:00 16,7 C 8,8 C 0,0 UV-I 0,0 C 51 % 81 % 0 % 1019,2 hPa 0,0 l/m 0,0 km/h (0 Bft) 0,00 h 0,6 km/h (0 Bft)
17.05.2010 03:00 16,6 C 9,3 C 0,0 UV-I 0,0 C 50 % 79 % 0 % 1019,1 hPa 0,0 l/m 0,3 km/h (0 Bft) 0,00 h 0,8 km/h (0 Bft)
17.05.2010 04:00 16,5 C 9,3 C 0,0 UV-I 0,0 C 51 % 80 % 0 % 1019,2 hPa 0,0 l/m 0,7 km/h (0 Bft) 0,00 h 1,1 km/h (0 Bft)
17.05.2010 05:00 16,4 C 9,3 C 0,0 UV-I 0,0 C 51 % 82 % 0 % 1019,2 hPa 0,0 l/m 1,3 km/h (1 Bft) 0,00 h 2,4 km/h (1 Bft)
17.05.2010 06:00 16,3 C 9,6 C 0,0 UV-I 0,0 C 52 % 82 % 0 % 1019,4 hPa 0,0 l/m 0,6 km/h (0 Bft) 0,00 h 1,6 km/h (1 Bft)
17.05.2010 07:00 16,4 C 10,1 C 0,5 UV-I 0,2 C 52 % 82 % 5 % 1019,9 hPa 0,0 l/m 0,7 km/h (0 Bft) 0,00 h 1,5 km/h (1 Bft)
17.05.2010 08:00 16,6 C 11,4 C 2,1 UV-I 1,5 C 52 % 81 % 43 % 1020,3 hPa 0,0 l/m 2,7 km/h (1 Bft) 0,00 h 3,4 km/h (1 Bft)
17.05.2010 09:00 16,8 C 11,7 C 1,1 UV-I 1,0 C 53 % 82 % 30 % 1020,7 hPa 0,5 l/m 3,3 km/h (1 Bft) 0,00 h 4,0 km/h (1 Bft)
17.05.2010 10:00 16,8 C 10,8 C 0,7 UV-I 0,2 C 54 % 89 % 4 % 1020,9 hPa 1,1 l/m 2,0 km/h (1 Bft) 0,00 h 3,3 km/h (1 Bft)
17.05.2010 11:00 16,9 C 11,4 C 2,8 UV-I 1,6 C 54 % 88 % 46 % 1021,3 hPa 0,1 l/m 2,0 km/h (1 Bft) 0,03 h 2,6 km/h (1 Bft)
17.05.2010 12:00 17,4 C 13,2 C 6,0 UV-I 4,7 C 54 % 80 % 97 % 1021,9 hPa 0,0 l/m 2,5 km/h (1 Bft) 0,77 h 3,2 km/h (1 Bft)
17.05.2010 13:00 17,6 C 13,3 C 1,6 UV-I 1,0 C 53 % 77 % 29 % 1022,0 hPa 0,2 l/m 2,1 km/h (1 Bft) 0,00 h 4,1 km/h (1 Bft)
17.05.2010 14:00 17,8 C 13,4 C 6,1 UV-I 2,4 C 53 % 76 % 52 % 1022,4 hPa 0,1 l/m 2,1 km/h (1 Bft) 0,37 h 2,9 km/h (1 Bft)
17.05.2010 15:00 19,1 C 14,5 C 3,4 UV-I 2,6 C 49 % 69 % 50 % 1023,5 hPa 1,7 l/m 3,4 km/h (1 Bft) 0,30 h 4,1 km/h (1 Bft)
17.05.2010 16:00 18,7 C 12,0 C 1,6 UV-I 0,2 C 50 % 82 % 6 % 1022,8 hPa 0,1 l/m 1,2 km/h (1 Bft) 0,00 h 1,3 km/h (1 Bft)
17.05.2010 17:00 17,9 C 11,4 C 0,1 UV-I 0,0 C 52 % 85 % 0 % 1023,1 hPa 0,1 l/m 1,8 km/h (1 Bft) 0,00 h 2,1 km/h (1 Bft)
17.05.2010 18:00 17,4 C 11,3 C 0,6 UV-I 0,0 C 53 % 83 % 0 % 1023,7 hPa 0,0 l/m 3,9 km/h (1 Bft) 0,00 h 6,1 km/h (2 Bft)
17.05.2010 19:00 17,4 C 11,2 C 0,9 UV-I 0,0 C 53 % 79 % 1 % 1023,8 hPa 0,0 l/m 7,7 km/h (2 Bft) 0,00 h 7,1 km/h (2 Bft)
17.05.2010 20:00 17,2 C 10,8 C 0,0 UV-I 0,0 C 53 % 79 % 0 % 1024,2 hPa 0,0 l/m 4,8 km/h (1 Bft) 0,00 h 5,7 km/h (1 Bft)
17.05.2010 21:00 16,9 C 9,6 C 0,0 UV-I 0,0 C 54 % 82 % 0 % 1025,0 hPa 0,2 l/m 6,0 km/h (2 Bft) 0,00 h 5,4 km/h (1 Bft)
17.05.2010 22:00 16,7 C 8,8 C 0,0 UV-I 0,0 C 54 % 87 % 0 % 1025,6 hPa 0,1 l/m 2,0 km/h (1 Bft) 0,00 h 3,5 km/h (1 Bft)
17.05.2010 23:00 16,5 C 8,8 C 0,0 UV-I 0,0 C 55 % 88 % 0 % 1025,9 hPa 0,0 l/m 2,7 km/h (1 Bft) 0,00 h 3,0 km/h (1 Bft)
18.05.2010 00:00 16,2 C 8,2 C 0,0 UV-I 0,0 C 56 % 88 % 0 % 1026,2 hPa 0,0 l/m 0,1 km/h (0 Bft) 0,00 h 0,2 km/h (0 Bft)
18.05.2010 01:00 15,9 C 7,6 C 0,0 UV-I 0,0 C 56 % 90 % 0 % 1026,6 hPa 0,0 l/m 0,0 km/h (0 Bft) 0,00 h 0,0 km/h (0 Bft)
18.05.2010 02:00 15,7 C 7,1 C 0,0 UV-I 0,0 C 56 % 90 % 0 % 1026,6 hPa 0,0 l/m 0,0 km/h (0 Bft) 0,00 h 0,1 km/h (0 Bft)
18.05.2010 03:00 15,6 C 6,7 C 0,0 UV-I 0,0 C 57 % 92 % 0 % 1026,7 hPa 0,0 l/m 0,0 km/h (0 Bft) 0,00 h 0,2 km/h (0 Bft)
18.05.2010 04:00 15,4 C 6,1 C 0,0 UV-I 0,0 C 57 % 92 % 0 % 1026,8 hPa 0,0 l/m 0,0 km/h (0 Bft) 0,00 h 0,0 km/h (0 Bft)
18.05.2010 05:00 15,2 C 5,4 C 0,0 UV-I 0,0 C 57 % 92 % 0 % 1027,2 hPa 0,0 l/m 0,0 km/h (0 Bft) 0,00 h 0,0 km/h (0 Bft)
18.05.2010 06:00 15,2 C 5,1 C 0,1 UV-I 0,0 C 57 % 93 % 0 % 1027,4 hPa 0,0 l/m 0,0 km/h (0 Bft) 0,00 h 0,0 km/h (0 Bft)
18.05.2010 07:00 15,2 C 6,2 C 0,9 UV-I 0,0 C 57 % 94 % 0 % 1027,9 hPa 0,0 l/m 0,2 km/h (0 Bft) 0,00 h 0,7 km/h (0 Bft)
18.05.2010 08:00 15,2 C 8,0 C 2,0 UV-I 1,9 C 57 % 94 % 50 % 1028,4 hPa 0,0 l/m 2,7 km/h (1 Bft) 0,27 h 3,7 km/h (1 Bft)
18.05.2010 09:00 15,6 C 9,3 C 6,2 UV-I 4,0 C 57 % 90 % 91 % 1028,9 hPa 0,0 l/m 3,1 km/h (1 Bft) 0,67 h 4,6 km/h (1 Bft)
18.05.2010 10:00 15,8 C 11,3 C 12,5 UV-I 7,0 C 56 % 79 % 100 % 1028,9 hPa 0,0 l/m 6,4 km/h (2 Bft) 0,90 h 8,6 km/h (2 Bft)
18.05.2010 11:00 16,1 C 12,7 C 9,3 UV-I 5,4 C 55 % 70 % 100 % 1028,9 hPa 0,0 l/m 8,0 km/h (2 Bft) 0,73 h 11,2 km/h (2 Bft)
18.05.2010 12:00 16,8 C 13,1 C 6,6 UV-I 3,5 C 54 % 66 % 88 % 1029,1 hPa 0,0 l/m 10,1 km/h (2 Bft) 0,60 h 11,1 km/h (2 Bft)
18.05.2010 13:00 17,4 C 14,2 C 7,5 UV-I 4,1 C 52 % 62 % 100 % 1029,3 hPa 0,0 l/m 8,1 km/h (2 Bft) 0,80 h 11,3 km/h (2 Bft)
18.05.2010 14:00 17,7 C 14,1 C 4,5 UV-I 1,9 C 51 % 62 % 53 % 1029,0 hPa 0,0 l/m 9,1 km/h (2 Bft) 0,10 h 10,7 km/h (2 Bft)
18.05.2010 15:00 18,6 C 16,0 C 7,5 UV-I 4,0 C 49 % 55 % 93 % 1030,1 hPa 0,0 l/m 7,5 km/h (2 Bft) 0,47 h 10,2 km/h (2 Bft)
18.05.2010 16:00 19,7 C 16,1 C 5,9 UV-I 2,9 C 45 % 51 % 79 % 1030,8 hPa 0,0 l/m 11,4 km/h (2 Bft) 0,27 h 14,7 km/h (3 Bft)
18.05.2010 17:00 19,8 C 16,0 C 5,7 UV-I 2,4 C 45 % 49 % 69 % 1029,5 hPa 0,0 l/m 10,4 km/h (2 Bft) 0,27 h 12,4 km/h (3 Bft)
18.05.2010 18:00 19,7 C 15,8 C 3,1 UV-I 1,0 C 44 % 46 % 29 % 1028,6 hPa 0,0 l/m 10,9 km/h (2 Bft) 0,03 h 15,3 km/h (3 Bft)
18.05.2010 19:00 18,9 C 15,1 C 1,5 UV-I 0,0 C 46 % 47 % 0 % 1027,7 hPa 0,0 l/m 11,9 km/h (2 Bft) 0,00 h 12,3 km/h (3 Bft)
18.05.2010 20:00 18,3 C 14,0 C 0,6 UV-I 0,0 C 46 % 52 % 0 % 1027,4 hPa 0,0 l/m 12,7 km/h (3 Bft) 0,00 h 14,4 km/h (3 Bft)
18.05.2010 21:00 17,7 C 12,5 C 0,0 UV-I 0,0 C 48 % 56 % 0 % 1027,8 hPa 0,0 l/m 8,4 km/h (2 Bft) 0,00 h 8,9 km/h (2 Bft)
18.05.2010 22:00 17,3 C 10,9 C 0,0 UV-I 0,0 C 49 % 55 % 0 % 1028,4 hPa 0,0 l/m 7,1 km/h (2 Bft) 0,00 h 7,2 km/h (2 Bft)
18.05.2010 23:00 17,0 C 9,3 C 0,0 UV-I 0,0 C 49 % 64 % 0 % 1028,2 hPa 0,0 l/m 0,9 km/h (0 Bft) 0,00 h 0,8 km/h (0 Bft)
19.05.2010 00:00 16,6 C 8,1 C 0,0 UV-I 0,0 C 50 % 73 % 0 % 1028,0 hPa 0,0 l/m 1,3 km/h (1 Bft) 0,00 h 1,8 km/h (1 Bft)
19.05.2010 01:00 16,3 C 7,4 C 0,0 UV-I 0,0 C 51 % 80 % 0 % 1027,8 hPa 0,0 l/m 0,6 km/h (0 Bft) 0,00 h 0,9 km/h (0 Bft)
19.05.2010 02:00 16,0 C 6,4 C 0,0 UV-I 0,0 C 52 % 83 % 0 % 1027,7 hPa 0,0 l/m 0,0 km/h (0 Bft) 0,00 h 0,0 km/h (0 Bft)
19.05.2010 03:00 15,8 C 5,8 C 0,0 UV-I 0,0 C 53 % 87 % 0 % 1027,8 hPa 0,0 l/m 0,2 km/h (0 Bft) 0,00 h 0,1 km/h (0 Bft)
19.05.2010 04:00 15,6 C 6,1 C 0,0 UV-I 0,0 C 53 % 88 % 0 % 1027,9 hPa 0,0 l/m 0,0 km/h (0 Bft) 0,00 h 0,0 km/h (0 Bft)
19.05.2010 05:00 15,6 C 6,1 C 0,0 UV-I 0,0 C 53 % 90 % 0 % 1027,7 hPa 0,0 l/m 0,3 km/h (0 Bft) 0,00 h 0,7 km/h (0 Bft)
19.05.2010 06:00 15,5 C 6,6 C 0,0 UV-I 0,0 C 54 % 90 % 0 % 1027,3 hPa 0,0 l/m 2,0 km/h (1 Bft) 0,00 h 3,1 km/h (1 Bft)
19.05.2010 07:00 15,5 C 7,5 C 0,4 UV-I 0,1 C 54 % 89 % 1 % 1027,7 hPa 0,0 l/m 2,1 km/h (1 Bft) 0,00 h 2,2 km/h (1 Bft)
19.05.2010 08:00 15,6 C 8,4 C 0,9 UV-I 0,3 C 54 % 88 % 9 % 1027,8 hPa 0,0 l/m 4,0 km/h (1 Bft) 0,00 h 5,6 km/h (1 Bft)
19.05.2010 09:00 15,8 C 9,7 C 2,3 UV-I 1,2 C 54 % 83 % 34 % 1028,0 hPa 0,0 l/m 7,6 km/h (2 Bft) 0,00 h 8,8 km/h (2 Bft)
19.05.2010 10:00 16,3 C 11,4 C 4,3 UV-I 2,4 C 54 % 76 % 66 % 1028,3 hPa 0,0 l/m 8,1 km/h (2 Bft) 0,33 h 10,1 km/h (2 Bft)
19.05.2010 11:00 16,9 C 13,5 C 9,1 UV-I 4,4 C 52 % 63 % 99 % 1028,4 hPa 0,0 l/m 13,7 km/h (3 Bft) 0,90 h 18,2 km/h (3 Bft)
19.05.2010 12:00 17,2 C 15,4 C 7,7 UV-I 3,7 C 51 % 50 % 98 % 1028,3 hPa 0,0 l/m 17,9 km/h (3 Bft) 0,80 h 22,5 km/h (4 Bft)
19.05.2010 13:00 17,6 C 16,9 C 7,2 UV-I 3,9 C 50 % 47 % 100 % 1028,0 hPa 0,0 l/m 16,0 km/h (3 Bft) 0,80 h 17,5 km/h (3 Bft)
19.05.2010 14:00 18,9 C 17,9 C 7,7 UV-I 3,7 C 47 % 44 % 100 % 1029,2 hPa 0,0 l/m 17,4 km/h (3 Bft) 0,85 h 20,3 km/h (4 Bft)
19.05.2010 15:00 20,0 C 18,3 C 8,0 UV-I 3,3 C 44 % 42 % 84 % 1030,1 hPa 0,0 l/m 17,5 km/h (3 Bft) 0,50 h 17,9 km/h (3 Bft)
19.05.2010 16:00 19,8 C 18,0 C 5,9 UV-I 1,7 C 44 % 41 % 50 % 1028,9 hPa 0,0 l/m 18,7 km/h (3 Bft) 0,00 h 19,2 km/h (3 Bft)
19.05.2010 17:00 20,3 C 18,5 C 7,6 UV-I 3,0 C 44 % 43 % 81 % 1029,5 hPa 0,0 l/m 19,0 km/h (3 Bft) 0,47 h 21,2 km/h (4 Bft)
19.05.2010 18:00 20,3 C 17,8 C 1,7 UV-I 0,7 C 44 % 46 % 20 % 1028,9 hPa 0,0 l/m 16,9 km/h (3 Bft) 0,00 h 17,9 km/h (3 Bft)
19.05.2010 19:00 19,5 C 17,0 C 0,7 UV-I 0,1 C 45 % 49 % 2 % 1028,3 hPa 0,0 l/m 16,8 km/h (3 Bft) 0,00 h 18,5 km/h (3 Bft)
19.05.2010 20:00 18,9 C 16,1 C 0,2 UV-I 0,0 C 46 % 51 % 0 % 1028,5 hPa 0,0 l/m 16,1 km/h (3 Bft) 0,00 h 19,6 km/h (3 Bft)
19.05.2010 21:00 18,5 C 15,2 C 0,0 UV-I 0,0 C 47 % 53 % 0 % 1028,9 hPa 0,0 l/m 12,4 km/h (3 Bft) 0,00 h 12,0 km/h (2 Bft)
19.05.2010 22:00 18,2 C 14,3 C 0,0 UV-I 0,0 C 48 % 54 % 0 % 1029,4 hPa 0,0 l/m 10,2 km/h (2 Bft) 0,00 h 10,5 km/h (2 Bft)
19.05.2010 23:00 18,0 C 13,6 C 0,0 UV-I 0,0 C 48 % 55 % 0 % 1029,8 hPa 0,0 l/m 9,4 km/h (2 Bft) 0,00 h 11,0 km/h (2 Bft)
20.05.2010 00:00 17,8 C 12,7 C 0,0 UV-I 0,0 C 48 % 61 % 0 % 1030,0 hPa 0,0 l/m 8,1 km/h (2 Bft) 0,00 h 9,2 km/h (2 Bft)
20.05.2010 01:00 17,7 C 11,5 C 0,0 UV-I 0,0 C 49 % 66 % 0 % 1029,9 hPa 0,0 l/m 6,7 km/h (2 Bft) 0,00 h 6,6 km/h (2 Bft)
20.05.2010 02:00 17,5 C 10,4 C 0,0 UV-I 0,0 C 49 % 70 % 0 % 1030,2 hPa 0,0 l/m 1,7 km/h (1 Bft) 0,00 h 2,3 km/h (1 Bft)
20.05.2010 03:00 17,2 C 9,3 C 0,0 UV-I 0,0 C 50 % 73 % 0 % 1030,1 hPa 0,0 l/m 0,2 km/h (0 Bft) 0,00 h 0,7 km/h (0 Bft)
20.05.2010 04:00 16,9 C 8,4 C 0,0 UV-I 0,0 C 51 % 77 % 0 % 1030,1 hPa 0,0 l/m 0,0 km/h (0 Bft) 0,00 h 0,3 km/h (0 Bft)
20.05.2010 05:00 16,7 C 8,1 C 0,0 UV-I 0,0 C 51 % 78 % 0 % 1030,2 hPa 0,0 l/m 0,1 km/h (0 Bft) 0,00 h 0,3 km/h (0 Bft)
20.05.2010 06:00 16,6 C 8,4 C 0,1 UV-I 0,0 C 51 % 79 % 0 % 1030,4 hPa 0,0 l/m 0,7 km/h (0 Bft) 0,00 h 0,9 km/h (0 Bft)
20.05.2010 07:00 16,6 C 8,9 C 0,7 UV-I 0,3 C 51 % 79 % 10 % 1030,6 hPa 0,0 l/m 1,0 km/h (0 Bft) 0,00 h 2,0 km/h (1 Bft)
20.05.2010 08:00 16,8 C 10,3 C 2,9 UV-I 2,0 C 51 % 76 % 47 % 1030,9 hPa 0,0 l/m 6,9 km/h (2 Bft) 0,23 h 8,5 km/h (2 Bft)
20.05.2010 09:00 16,8 C 12,5 C 8,7 UV-I 5,9 C 51 % 71 % 100 % 1031,1 hPa 0,0 l/m 9,0 km/h (2 Bft) 0,93 h 10,6 km/h (2 Bft)
20.05.2010 10:00 17,1 C 14,8 C 12,4 UV-I 5,9 C 52 % 64 % 100 % 1031,4 hPa 0,0 l/m 11,5 km/h (2 Bft) 0,73 h 14,5 km/h (3 Bft)
20.05.2010 11:00 17,4 C 16,9 C 11,5 UV-I 4,9 C 52 % 56 % 100 % 1031,5 hPa 0,0 l/m 15,7 km/h (3 Bft) 0,77 h 18,5 km/h (3 Bft)
20.05.2010 12:00 17,8 C 18,2 C 8,9 UV-I 4,3 C 51 % 51 % 100 % 1031,5 hPa 0,0 l/m 16,7 km/h (3 Bft) 0,83 h 18,9 km/h (3 Bft)
20.05.2010 13:00 18,4 C 19,2 C 8,1 UV-I 3,9 C 50 % 47 % 100 % 1031,6 hPa 0,0 l/m 15,8 km/h (3 Bft) 0,80 h 17,4 km/h (3 Bft)
20.05.2010 14:00 19,6 C 20,3 C 8,6 UV-I 3,9 C 48 % 44 % 100 % 1031,9 hPa 0,0 l/m 14,6 km/h (3 Bft) 0,83 h 14,0 km/h (3 Bft)
20.05.2010 15:00 21,4 C 21,0 C 8,9 UV-I 3,6 C 44 % 41 % 100 % 1033,7 hPa 0,0 l/m 15,6 km/h (3 Bft) 0,70 h 17,9 km/h (3 Bft)
20.05.2010 16:00 22,6 C 21,3 C 9,9 UV-I 3,6 C 41 % 39 % 100 % 1034,5 hPa 0,0 l/m 15,5 km/h (3 Bft) 1,00 h 16,8 km/h (3 Bft)
20.05.2010 17:00 23,1 C 21,3 C 7,0 UV-I 3,3 C 40 % 40 % 95 % 1033,7 hPa 0,0 l/m 15,3 km/h (3 Bft) 1,00 h 16,5 km/h (3 Bft)
20.05.2010 18:00 22,4 C 20,7 C 3,1 UV-I 1,1 C 41 % 41 % 32 % 1031,7 hPa 0,0 l/m 13,6 km/h (3 Bft) 0,07 h 14,1 km/h (3 Bft)
20.05.2010 19:00 21,3 C 20,3 C 1,6 UV-I 0,0 C 43 % 43 % 0 % 1030,4 hPa 0,0 l/m 10,4 km/h (2 Bft) 0,00 h 9,9 km/h (2 Bft)
20.05.2010 20:00 20,7 C 19,4 C 0,4 UV-I 0,0 C 44 % 47 % 0 % 1030,3 hPa 0,0 l/m 8,4 km/h (2 Bft) 0,00 h 8,1 km/h (2 Bft)
20.05.2010 21:00 20,2 C 17,9 C 0,0 UV-I 0,0 C 45 % 52 % 0 % 1030,0 hPa 0,0 l/m 3,9 km/h (1 Bft) 0,00 h 4,7 km/h (1 Bft)
20.05.2010 22:00 19,7 C 16,4 C 0,0 UV-I 0,0 C 47 % 58 % 0 % 1030,5 hPa 0,0 l/m 5,2 km/h (1 Bft) 0,00 h 6,2 km/h (2 Bft)
20.05.2010 23:00 19,5 C 15,2 C 0,0 UV-I 0,0 C 48 % 61 % 0 % 1030,8 hPa 0,0 l/m 2,9 km/h (1 Bft) 0,00 h 2,6 km/h (1 Bft)
21.05.2010 00:00 19,3 C 13,5 C 0,0 UV-I 0,0 C 48 % 67 % 0 % 1031,0 hPa 0,0 l/m 0,1 km/h (0 Bft) 0,00 h 0,0 km/h (0 Bft)
21.05.2010 01:00 19,1 C 11,8 C 0,0 UV-I 0,0 C 49 % 73 % 0 % 1031,1 hPa 0,0 l/m 0,0 km/h (0 Bft) 0,00 h 0,0 km/h (0 Bft)
21.05.2010 02:00 18,9 C 10,7 C 0,0 UV-I 0,0 C 49 % 76 % 0 % 1030,8 hPa 0,0 l/m 0,0 km/h (0 Bft) 0,00 h 0,0 km/h (0 Bft)
21.05.2010 03:00 18,7 C 9,7 C 0,0 UV-I 0,0 C 50 % 80 % 0 % 1030,5 hPa 0,0 l/m 0,0 km/h (0 Bft) 0,00 h 0,0 km/h (0 Bft)
21.05.2010 04:00 18,5 C 8,8 C 0,0 UV-I 0,0 C 50 % 83 % 0 % 1030,5 hPa 0,0 l/m 0,0 km/h (0 Bft) 0,00 h 0,0 km/h (0 Bft)
21.05.2010 05:00 18,1 C 8,5 C 0,0 UV-I 0,0 C 52 % 86 % 0 % 1030,4 hPa 0,0 l/m 0,0 km/h (0 Bft) 0,00 h 0,0 km/h (0 Bft)
21.05.2010 06:00 17,9 C 9,8 C 0,0 UV-I 0,4 C 52 % 85 % 11 % 1030,2 hPa 0,0 l/m 0,0 km/h (0 Bft) 0,00 h 0,0 km/h (0 Bft)
21.05.2010 07:00 18,1 C 11,6 C 0,5 UV-I 0,8 C 52 % 82 % 23 % 1030,4 hPa 0,0 l/m 3,0 km/h (1 Bft) 0,00 h 4,3 km/h (1 Bft)
21.05.2010 08:00 18,4 C 12,7 C 1,8 UV-I 1,4 C 53 % 82 % 40 % 1031,1 hPa 0,0 l/m 5,8 km/h (2 Bft) 0,00 h 6,3 km/h (2 Bft)
21.05.2010 09:00 18,7 C 14,1 C 5,1 UV-I 3,8 C 53 % 79 % 91 % 1031,2 hPa 0,0 l/m 4,9 km/h (1 Bft) 0,70 h 6,4 km/h (2 Bft)
21.05.2010 10:00 19,0 C 16,2 C 12,1 UV-I 7,0 C 52 % 72 % 100 % 1031,1 hPa 0,0 l/m 6,1 km/h (2 Bft) 0,90 h 6,9 km/h (2 Bft)
21.05.2010 11:00 19,1 C 17,9 C 11,5 UV-I 6,8 C 52 % 65 % 100 % 1031,1 hPa 0,0 l/m 7,3 km/h (2 Bft) 0,90 h 9,5 km/h (2 Bft)
21.05.2010 12:00 19,5 C 19,0 C 8,3 UV-I 5,9 C 52 % 61 % 100 % 1031,2 hPa 0,0 l/m 6,6 km/h (2 Bft) 0,90 h 7,9 km/h (2 Bft)
21.05.2010 13:00 20,0 C 19,9 C 8,5 UV-I 5,4 C 51 % 58 % 100 % 1031,3 hPa 0,0 l/m 8,8 km/h (2 Bft) 0,90 h 10,4 km/h (2 Bft)
21.05.2010 14:00 21,2 C 21,1 C 9,4 UV-I 5,1 C 49 % 48 % 100 % 1031,9 hPa 0,0 l/m 10,3 km/h (2 Bft) 0,77 h 11,6 km/h (2 Bft)
21.05.2010 15:00 22,7 C 21,8 C 9,3 UV-I 4,4 C 45 % 45 % 100 % 1033,2 hPa 0,0 l/m 11,5 km/h (2 Bft) 0,97 h 12,8 km/h (3 Bft)
21.05.2010 16:00 23,0 C 21,3 C 7,3 UV-I 2,7 C 44 % 50 % 76 % 1031,9 hPa 0,0 l/m 11,4 km/h (2 Bft) 0,23 h 13,1 km/h (3 Bft)
21.05.2010 17:00 23,0 C 21,2 C 5,7 UV-I 2,9 C 45 % 51 % 79 % 1031,4 hPa 0,0 l/m 11,8 km/h (2 Bft) 0,53 h 11,5 km/h (2 Bft)
21.05.2010 18:00 22,6 C 20,7 C 2,9 UV-I 1,2 C 45 % 53 % 35 % 1030,5 hPa 0,0 l/m 11,9 km/h (2 Bft) 0,07 h 12,2 km/h (2 Bft)
21.05.2010 19:00 21,8 C 20,3 C 1,5 UV-I 0,0 C 47 % 54 % 0 % 1029,7 hPa 0,0 l/m 11,0 km/h (2 Bft) 0,00 h 11,0 km/h (2 Bft)
21.05.2010 20:00 21,4 C 19,6 C 0,4 UV-I 0,0 C 48 % 57 % 0 % 1029,2 hPa 0,0 l/m 8,8 km/h (2 Bft) 0,00 h 9,5 km/h (2 Bft)
21.05.2010 21:00 20,9 C 18,3 C 0,0 UV-I 0,0 C 49 % 61 % 0 % 1029,2 hPa 0,0 l/m 4,7 km/h (1 Bft) 0,00 h 5,7 km/h (1 Bft)
21.05.2010 22:00 20,4 C 16,9 C 0,0 UV-I 0,0 C 50 % 65 % 0 % 1029,4 hPa 0,0 l/m 6,3 km/h (2 Bft) 0,00 h 7,0 km/h (2 Bft)
21.05.2010 23:00 20,2 C 15,6 C 0,0 UV-I 0,0 C 51 % 69 % 0 % 1029,7 hPa 0,0 l/m 4,4 km/h (1 Bft) 0,00 h 4,0 km/h (1 Bft)
22.05.2010 00:00 20,0 C 14,4 C 0,0 UV-I 0,0 C 51 % 71 % 0 % 1029,8 hPa 0,0 l/m 3,7 km/h (1 Bft) 0,00 h 4,4 km/h (1 Bft)
22.05.2010 01:00 19,9 C 13,1 C 0,0 UV-I 0,0 C 51 % 74 % 0 % 1029,8 hPa 0,0 l/m 0,6 km/h (0 Bft) 0,00 h 0,6 km/h (0 Bft)
22.05.2010 02:00 19,7 C 11,7 C 0,0 UV-I 0,0 C 52 % 80 % 0 % 1029,3 hPa 0,0 l/m 0,0 km/h (0 Bft) 0,00 h 0,1 km/h (0 Bft)
22.05.2010 03:00 19,5 C 10,7 C 0,0 UV-I 0,0 C 52 % 84 % 0 % 1029,1 hPa 0,0 l/m 0,3 km/h (0 Bft) 0,00 h 0,6 km/h (0 Bft)
22.05.2010 04:00 19,2 C 9,9 C 0,0 UV-I 0,0 C 53 % 86 % 0 % 1028,9 hPa 0,0 l/m 0,1 km/h (0 Bft) 0,00 h 0,3 km/h (0 Bft)
22.05.2010 05:00 18,8 C 9,0 C 0,0 UV-I 0,0 C 54 % 87 % 0 % 1028,8 hPa 0,0 l/m 0,0 km/h (0 Bft) 0,00 h 0,0 km/h (0 Bft)
22.05.2010 06:00 18,5 C 8,4 C 0,2 UV-I 0,0 C 54 % 89 % 0 % 1028,9 hPa 0,0 l/m 0,0 km/h (0 Bft) 0,00 h 0,0 km/h (0 Bft)
22.05.2010 07:00 18,4 C 9,4 C 1,1 UV-I 0,1 C 54 % 89 % 4 % 1028,9 hPa 0,0 l/m 1,2 km/h (1 Bft) 0,00 h 2,2 km/h (1 Bft)
22.05.2010 08:00 18,7 C 10,5 C 2,7 UV-I 1,9 C 54 % 86 % 52 % 1029,2 hPa 0,0 l/m 7,0 km/h (2 Bft) 0,23 h 8,8 km/h (2 Bft)
22.05.2010 09:00 18,9 C 12,3 C 9,3 UV-I 5,2 C 54 % 81 % 97 % 1029,4 hPa 0,0 l/m 8,6 km/h (2 Bft) 0,70 h 10,1 km/h (2 Bft)
22.05.2010 10:00 19,2 C 14,2 C 13,7 UV-I 7,1 C 53 % 74 % 100 % 1029,2 hPa 0,0 l/m 7,3 km/h (2 Bft) 0,83 h 8,1 km/h (2 Bft)
22.05.2010 11:00 19,3 C 15,8 C 12,2 UV-I 6,4 C 53 % 68 % 100 % 1028,9 hPa 0,0 l/m 8,7 km/h (2 Bft) 0,70 h 9,4 km/h (2 Bft)
22.05.2010 12:00 19,6 C 17,8 C 8,5 UV-I 5,7 C 53 % 63 % 100 % 1028,7 hPa 0,0 l/m 9,4 km/h (2 Bft) 0,45 h 10,0 km/h (2 Bft)
22.05.2010 13:00 20,1 C 19,5 C 7,6 UV-I 4,9 C 53 % 55 % 100 % 1028,6 hPa 0,0 l/m 11,1 km/h (2 Bft) 0,40 h 11,1 km/h (2 Bft)
22.05.2010 14:00 21,3 C 21,1 C 8,2 UV-I 4,9 C 51 % 50 % 100 % 1029,1 hPa 0,0 l/m 8,6 km/h (2 Bft) 0,40 h 10,9 km/h (2 Bft)
22.05.2010 15:00 23,1 C 22,1 C 8,9 UV-I 4,7 C 47 % 47 % 100 % 1030,4 hPa 0,0 l/m 9,6 km/h (2 Bft) 0,40 h 10,7 km/h (2 Bft)
22.05.2010 16:00 24,3 C 23,0 C 10,9 UV-I 4,4 C 45 % 47 % 100 % 1030,7 hPa 0,0 l/m 9,1 km/h (2 Bft) 0,40 h 7,7 km/h (2 Bft)
22.05.2010 17:00 24,7 C 23,3 C 7,5 UV-I 4,5 C 44 % 46 % 100 % 1029,7 hPa 0,0 l/m 8,3 km/h (2 Bft) 0,57 h 10,3 km/h (2 Bft)
22.05.2010 18:00 24,0 C 22,8 C 3,2 UV-I 1,6 C 45 % 49 % 45 % 1027,9 hPa 0,0 l/m 9,0 km/h (2 Bft) 0,17 h 10,1 km/h (2 Bft)
22.05.2010 19:00 22,9 C 22,2 C 1,8 UV-I 0,0 C 47 % 51 % 0 % 1026,6 hPa 0,0 l/m 9,4 km/h (2 Bft) 0,00 h 9,9 km/h (2 Bft)
22.05.2010 20:00 22,3 C 21,5 C 0,5 UV-I 0,0 C 48 % 55 % 0 % 1026,1 hPa 0,0 l/m 9,3 km/h (2 Bft) 0,00 h 9,3 km/h (2 Bft)
22.05.2010 21:00 21,9 C 20,1 C 0,0 UV-I 0,0 C 49 % 61 % 0 % 1025,9 hPa 0,0 l/m 5,5 km/h (1 Bft) 0,00 h 6,2 km/h (2 Bft)
22.05.2010 22:00 21,3 C 18,5 C 0,0 UV-I 0,0 C 51 % 66 % 0 % 1026,0 hPa 0,0 l/m 4,3 km/h (1 Bft) 0,00 h 4,5 km/h (1 Bft)
22.05.2010 23:00 21,0 C 17,1 C 0,0 UV-I 0,0 C 52 % 70 % 0 % 1026,1 hPa 0,0 l/m 1,8 km/h (1 Bft) 0,00 h 2,6 km/h (1 Bft)
23.05.2010 00:00 20,8 C 16,1 C 0,0 UV-I 0,0 C 53 % 74 % 0 % 1026,1 hPa 0,0 l/m 5,2 km/h (1 Bft) 0,00 h 6,1 km/h (2 Bft)
23.05.2010 01:00 20,6 C 14,9 C 0,0 UV-I 0,0 C 53 % 77 % 0 % 1026,2 hPa 0,0 l/m 5,1 km/h (1 Bft) 0,00 h 5,2 km/h (1 Bft)
23.05.2010 02:00 20,4 C 13,8 C 0,0 UV-I 0,0 C 54 % 81 % 0 % 1025,9 hPa 0,0 l/m 4,4 km/h (1 Bft) 0,00 h 5,1 km/h (1 Bft)
23.05.2010 03:00 20,2 C 12,6 C 0,0 UV-I 0,0 C 54 % 84 % 0 % 1025,8 hPa 0,0 l/m 0,3 km/h (0 Bft) 0,00 h 0,4 km/h (0 Bft)
23.05.2010 04:00 20,0 C 11,5 C 0,0 UV-I 0,0 C 55 % 87 % 0 % 1025,4 hPa 0,0 l/m 0,6 km/h (0 Bft) 0,00 h 1,2 km/h (1 Bft)
23.05.2010 05:00 19,7 C 10,6 C 0,0 UV-I 0,0 C 55 % 89 % 0 % 1025,5 hPa 0,0 l/m 0,8 km/h (0 Bft) 0,00 h 1,0 km/h (0 Bft)
23.05.2010 06:00 19,4 C 10,0 C 0,1 UV-I 0,0 C 56 % 91 % 0 % 1025,5 hPa 0,0 l/m 0,6 km/h (0 Bft) 0,00 h 1,0 km/h (0 Bft)
23.05.2010 07:00 19,2 C 9,9 C 0,3 UV-I 0,0 C 56 % 92 % 0 % 1025,6 hPa 0,0 l/m 7,2 km/h (2 Bft) 0,00 h 7,7 km/h (2 Bft)
23.05.2010 08:00 19,2 C 9,9 C 0,9 UV-I 0,5 C 56 % 93 % 15 % 1026,0 hPa 0,0 l/m 6,0 km/h (2 Bft) 0,00 h 6,4 km/h (2 Bft)
23.05.2010 09:00 19,4 C 11,0 C 4,9 UV-I 3,2 C 56 % 91 % 63 % 1026,2 hPa 0,0 l/m 5,4 km/h (1 Bft) 0,33 h 6,9 km/h (2 Bft)
23.05.2010 10:00 19,6 C 14,1 C 14,1 UV-I 7,6 C 55 % 82 % 100 % 1026,1 hPa 0,0 l/m 5,1 km/h (1 Bft) 0,77 h 4,7 km/h (1 Bft)
23.05.2010 11:00 19,9 C 17,0 C 12,2 UV-I 7,5 C 55 % 73 % 100 % 1025,9 hPa 0,0 l/m 5,4 km/h (1 Bft) 0,60 h 7,3 km/h (2 Bft)
23.05.2010 12:00 20,3 C 19,5 C 8,9 UV-I 6,3 C 55 % 67 % 100 % 1025,6 hPa 0,0 l/m 5,7 km/h (1 Bft) 0,77 h 5,9 km/h (2 Bft)
23.05.2010 13:00 20,8 C 21,6 C 8,4 UV-I 5,8 C 54 % 60 % 100 % 1025,3 hPa 0,0 l/m 6,2 km/h (2 Bft) 0,77 h 7,9 km/h (2 Bft)
23.05.2010 14:00 21,4 C 23,1 C 8,4 UV-I 5,3 C 53 % 56 % 100 % 1025,0 hPa 0,0 l/m 6,2 km/h (2 Bft) 0,77 h 7,1 km/h (2 Bft)
23.05.2010 15:00 21,5 C 23,9 C 8,9 UV-I 4,7 C 53 % 55 % 100 % 1024,2 hPa 0,0 l/m 6,6 km/h (2 Bft) 0,73 h 9,6 km/h (2 Bft)
23.05.2010 16:00 21,6 C 24,4 C 10,5 UV-I 4,2 C 53 % 52 % 97 % 1023,7 hPa 0,0 l/m 10,6 km/h (2 Bft) 0,57 h 12,5 km/h (3 Bft)
23.05.2010 17:00 21,6 C 24,4 C 8,1 UV-I 3,9 C 53 % 52 % 95 % 1023,2 hPa 0,0 l/m 8,3 km/h (2 Bft) 0,50 h 9,0 km/h (2 Bft)
23.05.2010 18:00 21,6 C 24,2 C 2,6 UV-I 2,5 C 53 % 52 % 65 % 1022,6 hPa 0,0 l/m 7,0 km/h (2 Bft) 0,20 h 8,4 km/h (2 Bft)
23.05.2010 19:00 21,6 C 23,8 C 1,0 UV-I 0,0 C 53 % 52 % 0 % 1021,8 hPa 0,0 l/m 6,7 km/h (2 Bft) 0,00 h 5,9 km/h (2 Bft)
23.05.2010 20:00 21,6 C 23,1 C 0,1 UV-I 0,0 C 54 % 56 % 0 % 1021,5 hPa 0,0 l/m 1,7 km/h (1 Bft) 0,00 h 1,0 km/h (0 Bft)
23.05.2010 21:00 21,5 C 21,3 C 0,0 UV-I 0,0 C 54 % 64 % 0 % 1021,2 hPa 0,0 l/m 0,0 km/h (0 Bft) 0,00 h 0,0 km/h (0 Bft)
23.05.2010 22:00 21,3 C 19,0 C 0,0 UV-I 0,0 C 55 % 72 % 0 % 1020,9 hPa 0,0 l/m 0,0 km/h (0 Bft) 0,00 h 0,0 km/h (0 Bft)
23.05.2010 23:00 21,1 C 17,5 C 0,0 UV-I 0,0 C 56 % 76 % 0 % 1020,5 hPa 0,0 l/m 0,0 km/h (0 Bft) 0,00 h 0,0 km/h (0 Bft)
Min-Datum _ 18.05.10 18.05.10 17.05.10 17.05.10 20.05.10 20.05.10 17.05.10 17.05.10 - 17.05.10 - 17.05.10
_ Min-Zeit 05:36 06:00 00:00 00:00 16:40 16:10 00:00 00:00 - 00:00 - 00:00
Minimum _ 15,1 C 4,9 C 0,0 UV-I 0,0 C 40 % 38 % 0 % 1018,8 hPa - 0,0 km/h (0 Bft) - 0,0 km/h (0 Bft)
Max-Datum _ 22.05.10 23.05.10 23.05.10 23.05.10 18.05.10 18.05.10 17.05.10 20.05.10 17.05.10 19.05.10 17.05.10 19.05.10
_ Max-Zeit 17:08 17:08 10:16 11:20 02:20 07:58 12:04 15:52 15:40 12:54 11:56 12:52
Maximum _ 24,7 C 24,9 C 15,1 UV-I 8,4 C 57 % 95 % 100 % 1035,2 hPa 1,7 l/m 22,5 km/h
W-SW (4 Bft)
0,03 h 51,8 km/h
W-SW (7 Bft)
Durchschnitt _ 18,8 C 14,1 C 3,1 UV-I 1,6 C 51 % 69 % 35 % 1027,6 hPa #4,1 l/m 5,9 km/h (2 Bft) #37:14 h 6,7 km/h (2 Bft)
© 2012 W. Hausmann